createdAt,value
2019-06-07T00:00:37.488Z,11.90
2019-06-07T00:02:00.306Z,11.90
2019-06-07T00:03:32.387Z,11.90
2019-06-07T00:05:04.861Z,11.90
2019-06-07T00:06:36.982Z,11.90
2019-06-07T00:08:15.282Z,11.90
2019-06-07T00:09:43.257Z,11.90
2019-06-07T00:11:18.626Z,11.80
2019-06-07T00:12:49.520Z,11.80
2019-06-07T00:14:21.798Z,11.80
2019-06-07T00:15:54.098Z,11.80
2019-06-07T00:17:26.353Z,11.80
2019-06-07T00:18:58.624Z,11.80
2019-06-07T00:20:30.753Z,11.80
2019-06-07T00:22:31.519Z,11.80
2019-06-07T00:23:37.137Z,11.80
2019-06-07T00:25:12.684Z,11.80
2019-06-07T00:26:57.682Z,11.80
2019-06-07T00:28:18.784Z,11.80
2019-06-07T00:29:52.317Z,11.80
2019-06-07T00:31:24.865Z,11.80
2019-06-07T00:32:57.122Z,11.80
2019-06-07T00:34:29.388Z,11.80
2019-06-07T00:36:01.536Z,11.80
2019-06-07T00:37:33.800Z,11.80
2019-06-07T00:39:07.803Z,11.70
2019-06-07T00:40:40.068Z,11.70
2019-06-07T00:42:14.740Z,11.70
2019-06-07T00:43:46.394Z,11.70
2019-06-07T00:45:21.868Z,11.70
2019-06-07T00:46:52.646Z,11.70
2019-06-07T00:48:31.350Z,11.70
2019-06-07T00:49:58.915Z,11.60
2019-06-07T00:51:49.425Z,11.60
2019-06-07T00:53:15.473Z,11.60
2019-06-07T00:54:39.213Z,11.50
2019-06-07T00:56:11.469Z,11.50
2019-06-07T00:57:43.728Z,11.50
2019-06-07T00:59:18.528Z,11.50
2019-06-07T01:00:50.106Z,11.50
2019-06-07T01:02:28.271Z,11.60
2019-06-07T01:03:56.502Z,11.60
2019-06-07T01:05:31.281Z,11.60
2019-06-07T01:07:02.968Z,11.50
2019-06-07T01:08:35.240Z,11.50
2019-06-07T01:10:10.388Z,11.50
2019-06-07T01:11:42.642Z,11.50
2019-06-07T01:13:15.478Z,11.50
2019-06-07T01:14:48.986Z,11.50
2019-06-07T01:16:23.424Z,11.50
2019-06-07T01:19:29.490Z,11.40
2019-06-07T01:21:01.638Z,11.30
2019-06-07T01:22:33.774Z,11.30
2019-06-07T01:24:11.818Z,11.30
2019-06-07T01:25:39.992Z,11.20
2019-06-07T01:27:12.091Z,11.20
2019-06-07T01:28:44.414Z,11.20
2019-06-07T01:30:18.768Z,11.10
2019-06-07T01:31:51.351Z,11.10
2019-06-07T01:33:31.791Z,11.10
2019-06-07T01:34:57.747Z,11.10
2019-06-07T01:36:31.057Z,11.10
2019-06-07T01:38:03.504Z,11.10
2019-06-07T01:39:35.800Z,11.20
2019-06-07T01:41:08.077Z,11.20
2019-06-07T01:42:40.225Z,11.20
2019-06-07T01:44:12.398Z,11.20
2019-06-07T01:45:44.632Z,11.20
2019-06-07T01:47:17.839Z,11.20
2019-06-07T01:48:50.679Z,11.20
2019-06-07T01:50:25.409Z,11.20
2019-06-07T01:51:56.933Z,11.20
2019-06-07T01:53:31.553Z,11.20
2019-06-07T01:55:03.753Z,11.20
2019-06-07T01:56:35.893Z,11.20
2019-06-07T01:58:08.007Z,11.20
2019-06-07T01:59:40.085Z,11.10
2019-06-07T02:01:12.330Z,11.10
2019-06-07T02:02:44.584Z,11.10
2019-06-07T02:04:19.232Z,11.00
2019-06-07T02:05:50.975Z,11.00
2019-06-07T02:07:26.915Z,10.90
2019-06-07T02:08:57.123Z,10.80
2019-06-07T02:10:33.103Z,10.80
2019-06-07T02:12:22.886Z,10.70
2019-06-07T02:13:37.208Z,10.60
2019-06-07T02:15:10.060Z,10.60
2019-06-07T02:16:42.199Z,10.50
2019-06-07T02:18:14.437Z,10.50
2019-06-07T02:19:46.660Z,10.50
2019-06-07T02:21:23.191Z,10.40
2019-06-07T02:22:53.077Z,10.40
2019-06-07T02:24:27.103Z,10.40
2019-06-07T02:25:59.378Z,10.40
2019-06-07T02:27:32.772Z,10.40
2019-06-07T02:29:05.127Z,10.40
2019-06-07T02:30:47.099Z,10.30
2019-06-07T02:32:11.545Z,10.30
2019-06-07T02:33:43.654Z,10.30
2019-06-07T02:35:15.789Z,10.30
2019-06-07T02:36:48.042Z,10.30
2019-06-07T02:38:22.314Z,10.40
2019-06-07T02:39:54.295Z,10.40
2019-06-07T02:41:31.021Z,10.40
2019-06-07T02:43:00.632Z,10.40
2019-06-07T02:44:38.550Z,10.40
2019-06-07T02:46:28.223Z,10.50
2019-06-07T02:47:47.699Z,10.50
2019-06-07T02:49:19.810Z,10.50
2019-06-07T02:50:52.162Z,10.50
2019-06-07T02:52:28.659Z,10.50
2019-06-07T02:53:58.440Z,10.60
2019-06-07T02:55:34.633Z,10.60
2019-06-07T02:57:04.794Z,10.60
2019-06-07T02:58:41.533Z,10.60
2019-06-07T03:00:40.566Z,10.60
2019-06-07T03:01:46.136Z,10.60
2019-06-07T03:03:18.270Z,10.60
2019-06-07T03:04:50.649Z,10.70
2019-06-07T03:06:24.051Z,10.70
2019-06-07T03:07:56.622Z,10.70
2019-06-07T03:09:32.835Z,10.70
2019-06-07T03:11:03.250Z,10.80
2019-06-07T03:12:39.236Z,10.80
2019-06-07T03:14:12.394Z,10.80
2019-06-07T03:15:50.011Z,10.80
2019-06-07T03:17:35.278Z,10.80
2019-06-07T03:19:12.886Z,10.80
2019-06-07T03:21:02.816Z,10.80
2019-06-07T03:22:20.926Z,10.80
2019-06-07T03:23:55.142Z,10.90
2019-06-07T03:25:37.064Z,10.90
2019-06-07T03:27:34.014Z,10.80
2019-06-07T03:28:42.204Z,10.90
2019-06-07T03:31:48.868Z,10.90
2019-06-07T03:33:20.941Z,10.80
2019-06-07T03:34:53.172Z,10.80
2019-06-07T03:36:26.062Z,10.80
2019-06-07T03:37:58.653Z,10.80
2019-06-07T03:39:31.394Z,10.80
2019-06-07T03:41:03.608Z,10.80
2019-06-07T03:42:38.779Z,10.80
2019-06-07T03:44:09.880Z,10.80
2019-06-07T03:45:41.934Z,10.80
2019-06-07T03:47:14.088Z,10.80
2019-06-07T03:48:46.227Z,10.80
2019-06-07T03:50:18.461Z,10.80
2019-06-07T03:51:50.593Z,10.80
2019-06-07T03:53:22.851Z,10.80
2019-06-07T03:54:55.066Z,10.80
2019-06-07T03:56:28.285Z,10.80
2019-06-07T03:58:30.794Z,10.80
2019-06-07T03:59:37.405Z,10.90
2019-06-07T04:01:09.627Z,10.90
2019-06-07T04:02:42.400Z,10.90
2019-06-07T04:04:14.603Z,10.90
2019-06-07T04:05:46.957Z,10.90
2019-06-07T04:07:19.064Z,10.90
2019-06-07T04:08:51.207Z,10.90
2019-06-07T04:10:44.864Z,10.90
2019-06-07T04:11:57.620Z,10.80
2019-06-07T04:13:34.030Z,10.90
2019-06-07T04:15:04.163Z,10.90
2019-06-07T04:16:40.849Z,10.90
2019-06-07T04:18:10.599Z,10.80
2019-06-07T04:19:43.596Z,10.80
2019-06-07T04:21:15.996Z,10.80
2019-06-07T04:22:48.100Z,10.80
2019-06-07T04:24:20.340Z,10.80
2019-06-07T04:25:52.638Z,10.80
2019-06-07T04:27:24.782Z,10.80
2019-06-07T04:30:41.792Z,10.80
2019-06-07T04:32:25.300Z,10.80
2019-06-07T04:33:57.370Z,10.80
2019-06-07T04:35:31.429Z,10.80
2019-06-07T04:37:03.509Z,10.80
2019-06-07T04:38:40.030Z,10.80
2019-06-07T04:40:10.889Z,10.80
2019-06-07T04:41:43.538Z,10.80
2019-06-07T04:43:15.643Z,10.90
2019-06-07T04:44:48.794Z,10.80
2019-06-07T04:46:22.848Z,10.90
2019-06-07T04:47:55.755Z,10.90
2019-06-07T04:49:29.754Z,10.90
2019-06-07T04:51:03.684Z,11.00
2019-06-07T04:52:40.570Z,10.90
2019-06-07T04:54:10.063Z,10.90
2019-06-07T04:55:42.303Z,10.90
2019-06-07T04:57:14.419Z,10.90
2019-06-07T04:58:46.532Z,10.90
2019-06-07T05:02:02.000Z,10.90
2019-06-07T05:03:36.075Z,11.00
2019-06-07T05:05:08.413Z,11.00
2019-06-07T05:06:42.442Z,11.00
2019-06-07T05:08:27.462Z,11.00
2019-06-07T05:09:48.831Z,11.00
2019-06-07T05:11:21.063Z,11.00
2019-06-07T05:12:53.283Z,11.00
2019-06-07T05:14:25.463Z,11.00
2019-06-07T05:15:57.817Z,11.00
2019-06-07T05:17:31.708Z,11.00
2019-06-07T05:19:04.196Z,11.00
2019-06-07T05:20:40.135Z,11.10
2019-06-07T05:22:10.429Z,11.10
2019-06-07T05:24:05.795Z,11.10
2019-06-07T05:25:16.731Z,11.10
2019-06-07T05:26:48.993Z,11.10
2019-06-07T05:28:21.149Z,11.20
2019-06-07T05:30:36.093Z,11.20
2019-06-07T05:31:27.618Z,11.20
2019-06-07T05:32:59.855Z,11.20
2019-06-07T05:34:33.805Z,11.30
2019-06-07T05:36:06.348Z,11.30
2019-06-07T05:37:41.031Z,11.30
2019-06-07T05:39:12.838Z,11.40
2019-06-07T05:40:48.670Z,11.40
2019-06-07T05:42:19.245Z,11.40
2019-06-07T05:44:11.268Z,11.50
2019-06-07T05:45:32.367Z,11.50
2019-06-07T05:47:04.731Z,11.60
2019-06-07T05:48:40.336Z,11.60
2019-06-07T05:50:37.952Z,11.60
2019-06-07T05:51:45.373Z,11.60
2019-06-07T05:53:17.835Z,11.60
2019-06-07T05:54:50.227Z,11.60
2019-06-07T05:56:22.320Z,11.60
2019-06-07T05:57:54.569Z,11.60
2019-06-07T05:59:26.660Z,11.60
2019-06-07T06:01:41.127Z,11.60
2019-06-07T06:02:44.245Z,11.60
2019-06-07T06:04:07.034Z,11.60
2019-06-07T06:05:43.301Z,11.50
2019-06-07T06:07:13.400Z,11.50
2019-06-07T06:08:47.937Z,11.50
2019-06-07T06:10:19.701Z,11.50
2019-06-07T06:12:01.776Z,11.50
2019-06-07T06:13:26.095Z,11.50
2019-06-07T06:14:58.228Z,11.50
2019-06-07T06:16:30.496Z,11.50
2019-06-07T06:18:02.828Z,11.50
2019-06-07T06:19:36.816Z,11.60
2019-06-07T06:21:18.761Z,11.60
2019-06-07T06:22:44.796Z,11.60
2019-06-07T06:24:17.385Z,11.60
2019-06-07T06:25:56.282Z,11.70
2019-06-07T06:28:02.838Z,11.70
2019-06-07T06:28:58.244Z,11.70
2019-06-07T06:30:30.510Z,11.70
2019-06-07T06:32:40.429Z,11.70
2019-06-07T06:33:37.446Z,11.70
2019-06-07T06:35:09.763Z,11.70
2019-06-07T06:36:44.589Z,11.70
2019-06-07T06:38:16.056Z,11.80
2019-06-07T06:39:50.126Z,11.80
2019-06-07T06:41:22.173Z,11.80
2019-06-07T06:42:54.421Z,11.90
2019-06-07T06:44:26.559Z,11.80
2019-06-07T06:45:58.661Z,11.90
2019-06-07T06:47:30.936Z,11.90
2019-06-07T06:49:03.256Z,12.00
2019-06-07T06:50:35.432Z,12.00
2019-06-07T06:52:07.702Z,12.10
2019-06-07T06:53:41.662Z,12.20
2019-06-07T06:55:14.253Z,12.30
2019-06-07T06:56:47.580Z,12.40
2019-06-07T06:58:20.374Z,12.50
2019-06-07T06:59:52.891Z,12.60
2019-06-07T07:01:25.227Z,12.70
2019-06-07T07:04:31.770Z,12.90
2019-06-07T07:06:24.834Z,12.90
2019-06-07T07:07:38.825Z,13.00
2019-06-07T07:09:11.032Z,13.10
2019-06-07T07:10:45.722Z,13.20
2019-06-07T07:12:17.862Z,13.30
2019-06-07T07:13:56.264Z,13.50
2019-06-07T07:15:24.272Z,13.60
2019-06-07T07:16:56.811Z,13.70
2019-06-07T07:18:29.123Z,13.80
2019-06-07T07:20:01.360Z,13.90
2019-06-07T07:21:33.624Z,14.10
2019-06-07T07:23:05.984Z,14.10
2019-06-07T07:24:38.103Z,14.20
2019-06-07T07:26:10.385Z,14.30
2019-06-07T07:27:42.537Z,14.40
2019-06-07T07:29:14.741Z,14.50
2019-06-07T07:30:49.995Z,14.60
2019-06-07T07:32:21.814Z,14.70
2019-06-07T07:35:28.143Z,15.10
2019-06-07T07:37:00.246Z,15.20
2019-06-07T07:38:32.530Z,15.40
2019-06-07T07:40:54.827Z,15.60
2019-06-07T07:41:39.564Z,15.80
2019-06-07T07:43:11.733Z,16.10
2019-06-07T07:44:44.980Z,16.40
2019-06-07T07:46:29.217Z,16.70
2019-06-07T07:48:08.183Z,17.00
2019-06-07T07:49:26.216Z,17.30
2019-06-07T07:51:01.091Z,17.60
2019-06-07T07:52:32.350Z,17.90
2019-06-07T07:54:10.564Z,18.10
2019-06-07T07:55:38.765Z,18.30
2019-06-07T07:57:10.996Z,18.50
2019-06-07T07:58:46.073Z,18.80
2019-06-07T08:00:50.264Z,18.90
2019-06-07T08:01:55.962Z,19.20
2019-06-07T08:03:27.633Z,19.30
2019-06-07T08:05:20.952Z,19.50
2019-06-07T08:06:34.012Z,19.70
2019-06-07T08:08:07.875Z,19.90
2019-06-07T08:09:40.345Z,20.10
2019-06-07T08:11:12.991Z,20.10
2019-06-07T08:13:08.922Z,20.20
2019-06-07T08:14:19.280Z,20.30
2019-06-07T08:15:53.317Z,20.50
2019-06-07T08:17:25.641Z,20.80
2019-06-07T08:19:03.580Z,21.00
2019-06-07T08:20:31.856Z,21.20
2019-06-07T08:22:04.013Z,21.40
2019-06-07T08:23:36.316Z,21.40
2019-06-07T08:25:09.052Z,21.40
2019-06-07T08:26:41.289Z,21.40
2019-06-07T08:28:13.424Z,21.30
2019-06-07T08:30:00.914Z,21.20
2019-06-07T08:31:19.858Z,21.10
2019-06-07T08:32:57.557Z,21.00
2019-06-07T08:34:26.310Z,21.10
2019-06-07T08:36:10.447Z,21.20
2019-06-07T08:38:14.305Z,21.50
2019-06-07T08:39:07.852Z,21.70
2019-06-07T08:40:40.176Z,21.90
2019-06-07T08:42:21.163Z,22.10
2019-06-07T08:43:46.262Z,22.30
2019-06-07T08:45:18.878Z,22.40
2019-06-07T08:46:56.631Z,22.40
2019-06-07T08:48:30.421Z,22.50
2019-06-07T08:50:06.286Z,22.60
2019-06-07T08:51:33.658Z,22.70
2019-06-07T08:53:12.053Z,22.80
2019-06-07T08:54:40.095Z,22.80
2019-06-07T08:56:12.369Z,22.90
2019-06-07T08:57:44.463Z,23.00
2019-06-07T08:59:16.532Z,23.10
2019-06-07T09:00:48.820Z,23.20
2019-06-07T09:02:24.076Z,23.30
2019-06-07T09:04:05.193Z,23.40
2019-06-07T09:05:29.757Z,23.50
2019-06-07T09:07:10.442Z,23.50
2019-06-07T09:08:35.973Z,23.60
2019-06-07T09:10:14.457Z,23.70
2019-06-07T09:11:44.051Z,23.70
2019-06-07T09:13:16.255Z,23.70
2019-06-07T09:14:59.735Z,23.80
2019-06-07T09:16:22.534Z,23.80
2019-06-07T09:18:37.776Z,23.80
2019-06-07T09:19:28.866Z,23.90
2019-06-07T09:21:06.959Z,24.00
2019-06-07T09:22:34.983Z,24.00
2019-06-07T09:24:11.351Z,24.10
2019-06-07T09:25:56.768Z,24.10
2019-06-07T09:27:16.266Z,24.20
2019-06-07T09:28:48.335Z,24.30
2019-06-07T09:30:41.364Z,24.30
2019-06-07T09:32:18.050Z,24.40
2019-06-07T09:33:47.454Z,24.40
2019-06-07T09:35:19.620Z,24.50
2019-06-07T09:36:52.134Z,24.60
2019-06-07T09:38:26.479Z,24.60
2019-06-07T09:40:05.501Z,24.60
2019-06-07T09:41:47.020Z,24.70
2019-06-07T09:43:54.301Z,24.70
2019-06-07T09:44:41.312Z,24.70
2019-06-07T09:46:16.110Z,24.60
2019-06-07T09:47:47.786Z,24.70
2019-06-07T09:49:31.558Z,24.80
2019-06-07T09:50:53.981Z,24.80
2019-06-07T09:52:26.107Z,24.90
2019-06-07T09:54:00.479Z,24.90
2019-06-07T09:55:32.400Z,24.90
2019-06-07T09:57:11.112Z,24.90
2019-06-07T09:58:54.456Z,24.90
2019-06-07T10:00:38.950Z,24.80
2019-06-07T10:01:47.910Z,24.80
2019-06-07T10:03:22.579Z,24.90
2019-06-07T10:04:54.336Z,24.90
2019-06-07T10:06:26.651Z,24.90
2019-06-07T10:08:12.164Z,25.00
2019-06-07T10:11:07.087Z,25.10
2019-06-07T10:12:39.222Z,25.20
2019-06-07T10:14:11.431Z,25.20
2019-06-07T10:15:43.595Z,25.20
2019-06-07T10:17:15.804Z,25.20
2019-06-07T10:18:47.925Z,25.20
2019-06-07T10:20:20.195Z,25.20
2019-06-07T10:21:52.299Z,25.20
2019-06-07T10:23:24.412Z,25.30
2019-06-07T10:24:56.687Z,25.30
2019-06-07T10:26:28.913Z,25.30
2019-06-07T10:28:02.093Z,25.40
2019-06-07T10:29:34.214Z,25.30
2019-06-07T10:31:08.929Z,25.40
2019-06-07T10:32:40.656Z,25.40
2019-06-07T10:34:12.831Z,25.40
2019-06-07T10:35:45.061Z,25.50
2019-06-07T10:37:17.324Z,25.40
2019-06-07T10:38:49.450Z,25.40
2019-06-07T10:40:21.542Z,25.40
2019-06-07T10:41:54.192Z,25.50
2019-06-07T10:43:26.595Z,25.40
2019-06-07T10:44:58.711Z,25.30
2019-06-07T10:46:30.883Z,25.30
2019-06-07T10:48:03.584Z,25.30
2019-06-07T10:49:35.900Z,25.30
2019-06-07T10:51:08.628Z,25.30
2019-06-07T10:52:40.990Z,25.30
2019-06-07T10:54:24.744Z,25.30
2019-06-07T10:55:47.341Z,25.30
2019-06-07T10:57:19.628Z,25.40
2019-06-07T10:58:51.789Z,25.40
2019-06-07T11:00:25.445Z,25.50
2019-06-07T11:01:57.685Z,25.50
2019-06-07T11:03:29.882Z,25.50
2019-06-07T11:05:03.609Z,25.50
2019-06-07T11:06:35.998Z,25.60
2019-06-07T11:08:08.136Z,25.50
2019-06-07T11:09:40.367Z,25.60
2019-06-07T11:11:12.580Z,25.60
2019-06-07T11:12:44.900Z,25.60
2019-06-07T11:14:17.003Z,25.60
2019-06-07T11:15:49.067Z,25.60
2019-06-07T11:17:21.189Z,25.50
2019-06-07T11:18:53.287Z,25.50
2019-06-07T11:20:25.396Z,25.40
2019-06-07T11:21:57.730Z,25.40
2019-06-07T11:23:29.969Z,25.40
2019-06-07T11:25:03.360Z,25.40
2019-06-07T11:26:35.972Z,25.40
2019-06-07T11:28:08.447Z,25.40
2019-06-07T11:29:40.698Z,25.30
2019-06-07T11:31:13.339Z,25.30
2019-06-07T11:32:46.020Z,25.20
2019-06-07T11:34:18.889Z,25.10
2019-06-07T11:35:51.250Z,25.00
2019-06-07T11:37:23.497Z,24.90
2019-06-07T11:38:55.811Z,25.00
2019-06-07T11:40:34.826Z,24.90
2019-06-07T11:42:02.023Z,24.80
2019-06-07T11:43:34.333Z,24.70
2019-06-07T11:45:07.994Z,24.60
2019-06-07T11:46:40.439Z,24.60
2019-06-07T11:48:13.473Z,24.50
2019-06-07T11:49:45.861Z,24.50
2019-06-07T11:51:18.909Z,24.40
2019-06-07T11:52:51.386Z,24.40
2019-06-07T11:54:23.501Z,24.40
2019-06-07T11:55:55.612Z,24.30
2019-06-07T11:57:27.720Z,24.20
2019-06-07T11:58:59.990Z,24.20
2019-06-07T12:00:34.360Z,24.20
2019-06-07T12:02:07.134Z,24.20
2019-06-07T12:03:39.430Z,24.20
2019-06-07T12:05:15.306Z,24.10
2019-06-07T12:06:46.256Z,24.10
2019-06-07T12:08:18.364Z,24.10
2019-06-07T12:09:56.248Z,24.10
2019-06-07T12:11:24.716Z,24.10
2019-06-07T12:12:56.798Z,24.00
2019-06-07T12:14:28.984Z,24.00
2019-06-07T12:16:01.343Z,24.00
2019-06-07T12:17:33.664Z,24.00
2019-06-07T12:19:05.833Z,24.00
2019-06-07T12:20:37.935Z,23.90
2019-06-07T12:22:10.058Z,23.90
2019-06-07T12:23:42.359Z,23.90
2019-06-07T12:25:18.963Z,23.90
2019-06-07T12:26:48.598Z,23.90
2019-06-07T12:28:21.072Z,23.90
2019-06-07T12:29:53.426Z,23.90
2019-06-07T12:31:25.554Z,23.90
2019-06-07T12:32:57.818Z,23.90
2019-06-07T12:34:29.948Z,23.80
2019-06-07T12:36:02.181Z,23.90
2019-06-07T12:37:43.573Z,23.90
2019-06-07T12:39:08.417Z,23.80
2019-06-07T12:40:40.662Z,23.80
2019-06-07T12:42:12.783Z,23.80
2019-06-07T12:43:44.866Z,23.80
2019-06-07T12:45:37.788Z,23.80
2019-06-07T12:46:51.196Z,23.80
2019-06-07T12:48:25.891Z,23.90
2019-06-07T12:49:57.514Z,23.80
2019-06-07T12:51:29.746Z,23.90
2019-06-07T12:53:02.341Z,23.90
2019-06-07T12:54:34.469Z,23.90
2019-06-07T12:56:06.587Z,23.90
2019-06-07T12:57:38.701Z,23.90
2019-06-07T12:59:10.913Z,23.80
2019-06-07T13:00:43.035Z,23.80
2019-06-07T13:02:16.351Z,23.80
2019-06-07T13:03:48.808Z,23.80
2019-06-07T13:05:21.715Z,23.80
2019-06-07T13:06:53.899Z,23.80
2019-06-07T13:08:26.187Z,23.80
2019-06-07T13:09:58.394Z,23.80
2019-06-07T13:11:31.778Z,23.80
2019-06-07T13:13:04.197Z,23.80
2019-06-07T13:14:36.316Z,23.80
2019-06-07T13:16:08.541Z,23.80
2019-06-07T13:17:40.725Z,23.80
2019-06-07T13:19:12.965Z,23.90
2019-06-07T13:20:45.318Z,23.90
2019-06-07T13:22:18.334Z,23.90
2019-06-07T13:23:50.857Z,23.90
2019-06-07T13:25:27.068Z,23.80
2019-06-07T13:26:57.388Z,23.80
2019-06-07T13:28:29.487Z,23.80
2019-06-07T13:30:09.152Z,23.80
2019-06-07T13:31:35.946Z,23.80
2019-06-07T13:33:10.276Z,23.90
2019-06-07T13:34:42.510Z,23.90
2019-06-07T13:36:15.954Z,23.90
2019-06-07T13:37:48.422Z,23.90
2019-06-07T13:39:23.341Z,23.90
2019-06-07T13:40:55.692Z,23.90
2019-06-07T13:42:28.648Z,23.90
2019-06-07T13:44:00.848Z,23.90
2019-06-07T13:45:33.067Z,24.00
2019-06-07T13:47:05.382Z,23.90
2019-06-07T13:48:37.453Z,24.00
2019-06-07T13:50:09.982Z,24.00
2019-06-07T13:51:42.093Z,24.00
2019-06-07T13:53:14.518Z,24.00
2019-06-07T13:54:46.745Z,24.00
2019-06-07T13:56:19.805Z,24.00
2019-06-07T13:57:52.176Z,24.10
2019-06-07T13:59:24.602Z,24.10
2019-06-07T14:00:57.948Z,24.10
2019-06-07T14:02:30.169Z,24.20
2019-06-07T14:04:02.246Z,24.20
2019-06-07T14:05:34.477Z,24.20
2019-06-07T14:07:06.634Z,24.20
2019-06-07T14:08:38.789Z,24.20
2019-06-07T14:10:11.905Z,24.20
2019-06-07T14:11:50.366Z,24.30
2019-06-07T14:13:19.388Z,24.30
2019-06-07T14:14:51.739Z,24.30
2019-06-07T14:16:24.276Z,24.40
2019-06-07T14:17:56.645Z,24.40
2019-06-07T14:19:28.844Z,24.40
2019-06-07T14:21:01.152Z,24.40
2019-06-07T14:22:33.364Z,24.40
2019-06-07T14:24:05.593Z,24.40
2019-06-07T14:25:37.858Z,24.50
2019-06-07T14:27:10.092Z,24.50
2019-06-07T14:28:42.367Z,24.50
2019-06-07T14:30:14.847Z,24.50
2019-06-07T14:31:46.957Z,24.50
2019-06-07T14:33:19.024Z,24.50
2019-06-07T14:34:51.235Z,24.50
2019-06-07T14:36:24.687Z,24.50
2019-06-07T14:37:57.102Z,24.60
2019-06-07T14:39:29.691Z,24.60
2019-06-07T14:41:03.382Z,24.60
2019-06-07T14:42:35.618Z,24.60
2019-06-07T14:44:07.877Z,24.60
2019-06-07T14:45:40.014Z,24.60
2019-06-07T14:47:12.379Z,24.70
2019-06-07T14:48:44.575Z,24.70
2019-06-07T14:50:16.678Z,24.70
2019-06-07T14:51:48.823Z,24.70
2019-06-07T14:53:21.050Z,24.70
2019-06-07T14:54:53.153Z,24.70
2019-06-07T14:56:25.348Z,24.80
2019-06-07T14:57:57.571Z,24.80
2019-06-07T14:59:30.476Z,24.80
2019-06-07T15:01:02.922Z,24.80
2019-06-07T15:02:37.846Z,24.80
2019-06-07T15:04:09.852Z,24.80
2019-06-07T15:05:41.920Z,24.80
2019-06-07T15:07:14.195Z,24.80
2019-06-07T15:08:46.453Z,24.80
2019-06-07T15:10:18.700Z,24.90
2019-06-07T15:11:50.965Z,24.90
2019-06-07T15:13:23.101Z,24.90
2019-06-07T15:14:55.375Z,25.00
2019-06-07T15:16:27.603Z,24.90
2019-06-07T15:17:59.756Z,24.90
2019-06-07T15:19:34.029Z,24.90
2019-06-07T15:21:06.204Z,25.00
2019-06-07T15:22:38.914Z,24.90
2019-06-07T15:24:11.378Z,24.90
2019-06-07T15:25:43.638Z,24.90
2019-06-07T15:27:15.813Z,24.90
2019-06-07T15:28:48.146Z,24.90
2019-06-07T15:30:20.344Z,24.90
2019-06-07T15:31:52.436Z,24.90
2019-06-07T15:33:24.676Z,24.80
2019-06-07T15:35:00.545Z,24.80
2019-06-07T15:36:32.756Z,24.80
2019-06-07T15:38:04.956Z,24.80
2019-06-07T15:39:37.198Z,24.80
2019-06-07T15:41:09.378Z,24.70
2019-06-07T15:42:51.683Z,24.70
2019-06-07T15:44:15.507Z,24.60
2019-06-07T15:45:47.728Z,24.60
2019-06-07T15:47:19.847Z,24.60
2019-06-07T15:48:52.198Z,24.60
2019-06-07T15:50:24.297Z,24.60
2019-06-07T15:51:56.452Z,24.60
2019-06-07T15:53:28.785Z,24.60
2019-06-07T15:55:00.980Z,24.60
2019-06-07T15:56:33.148Z,24.60
2019-06-07T15:58:05.420Z,24.60
2019-06-07T15:59:37.532Z,24.60
2019-06-07T16:01:09.775Z,24.50
2019-06-07T16:02:42.033Z,24.40
2019-06-07T16:04:14.260Z,24.40
2019-06-07T16:05:46.316Z,24.50
2019-06-07T16:07:18.637Z,24.40
2019-06-07T16:08:50.876Z,24.50
2019-06-07T16:10:22.985Z,24.40
2019-06-07T16:11:55.119Z,24.40
2019-06-07T16:13:27.364Z,24.40
2019-06-07T16:14:59.585Z,24.40
2019-06-07T16:16:32.698Z,24.30
2019-06-07T16:18:05.024Z,24.20
2019-06-07T16:19:40.658Z,24.20
2019-06-07T16:21:11.345Z,24.10
2019-06-07T16:22:44.019Z,24.00
2019-06-07T16:24:16.339Z,23.90
2019-06-07T16:25:48.436Z,23.90
2019-06-07T16:27:20.656Z,23.80
2019-06-07T16:28:52.898Z,23.70
2019-06-07T16:30:25.216Z,23.70
2019-06-07T16:31:57.411Z,23.70
2019-06-07T16:33:29.532Z,23.70
2019-06-07T16:35:01.889Z,23.70
2019-06-07T16:36:34.087Z,23.70
2019-06-07T16:38:06.255Z,23.70
2019-06-07T16:39:38.437Z,23.70
2019-06-07T16:41:10.515Z,23.80
2019-06-07T16:42:43.075Z,23.70
2019-06-07T16:44:16.695Z,23.80
2019-06-07T16:45:49.138Z,23.80
2019-06-07T16:47:21.638Z,23.70
2019-06-07T16:48:53.944Z,23.70
2019-06-07T16:50:26.294Z,23.70
2019-06-07T16:51:58.499Z,23.70
2019-06-07T16:53:30.833Z,23.70
2019-06-07T16:55:03.046Z,23.60
2019-06-07T16:56:35.423Z,23.50
2019-06-07T16:58:07.662Z,23.30
2019-06-07T16:59:40.956Z,23.10
2019-06-07T17:01:13.443Z,23.00
2019-06-07T17:02:47.103Z,22.80
2019-06-07T17:04:19.889Z,22.60
2019-06-07T17:05:52.086Z,22.40
2019-06-07T17:07:24.289Z,22.30
2019-06-07T17:08:56.615Z,22.30
2019-06-07T17:10:28.709Z,22.20
2019-06-07T17:12:00.978Z,22.10
2019-06-07T17:13:34.050Z,22.00
2019-06-07T17:15:07.156Z,21.80
2019-06-07T17:16:40.774Z,21.70
2019-06-07T17:18:13.210Z,21.60
2019-06-07T17:19:45.422Z,21.60
2019-06-07T17:21:17.646Z,21.50
2019-06-07T17:22:49.900Z,21.40
2019-06-07T17:24:22.040Z,21.30
2019-06-07T17:25:54.158Z,21.20
2019-06-07T17:27:26.406Z,21.10
2019-06-07T17:28:58.635Z,20.90
2019-06-07T17:30:30.956Z,20.90
2019-06-07T17:32:03.058Z,20.80
2019-06-07T17:33:35.277Z,20.70
2019-06-07T17:35:07.736Z,20.60
2019-06-07T17:36:40.300Z,20.50
2019-06-07T17:38:12.497Z,20.40
2019-06-07T17:39:45.077Z,20.30
2019-06-07T17:41:17.369Z,20.20
2019-06-07T17:42:50.909Z,20.10
2019-06-07T17:44:23.144Z,20.00
2019-06-07T17:45:55.413Z,19.80
2019-06-07T17:47:27.526Z,19.70
2019-06-07T17:48:59.632Z,19.60
2019-06-07T17:50:31.894Z,19.50
2019-06-07T17:52:04.117Z,19.40
2019-06-07T17:53:36.219Z,19.30
2019-06-07T17:55:08.931Z,19.30
2019-06-07T17:56:42.341Z,19.20
2019-06-07T17:58:14.714Z,19.10
2019-06-07T17:59:46.991Z,19.10
2019-06-07T18:01:19.244Z,19.00
2019-06-07T18:02:51.472Z,19.00
2019-06-07T18:04:23.776Z,18.90
2019-06-07T18:05:56.819Z,18.90
2019-06-07T18:07:30.256Z,18.80
2019-06-07T18:09:04.458Z,18.80
2019-06-07T18:10:37.665Z,18.70
2019-06-07T18:12:09.850Z,18.70
2019-06-07T18:13:42.098Z,18.60
2019-06-07T18:15:16.450Z,18.60
2019-06-07T18:16:48.736Z,18.60
2019-06-07T18:18:20.879Z,18.60
2019-06-07T18:19:53.065Z,18.60
2019-06-07T18:21:25.330Z,18.60
2019-06-07T18:22:57.584Z,18.50
2019-06-07T18:24:29.662Z,18.50
2019-06-07T18:26:01.943Z,18.50
2019-06-07T18:27:34.330Z,18.50
2019-06-07T18:29:06.604Z,18.40
2019-06-07T18:30:38.992Z,18.40
2019-06-07T18:32:13.473Z,18.40
2019-06-07T18:33:46.741Z,18.30
2019-06-07T18:35:19.084Z,18.30
2019-06-07T18:36:51.361Z,18.30
2019-06-07T18:38:23.508Z,18.20
2019-06-07T18:39:55.720Z,18.20
2019-06-07T18:41:27.988Z,18.20
2019-06-07T18:43:00.116Z,18.20
2019-06-07T18:44:32.398Z,18.20
2019-06-07T18:46:04.673Z,18.20
2019-06-07T18:47:36.933Z,18.20
2019-06-07T18:49:09.118Z,18.20
2019-06-07T18:50:41.224Z,18.10
2019-06-07T18:52:17.451Z,18.20
2019-06-07T18:53:49.801Z,18.10
2019-06-07T18:55:22.171Z,18.10
2019-06-07T18:56:54.957Z,18.10
2019-06-07T18:58:27.397Z,18.00
2019-06-07T18:59:59.667Z,18.00
2019-06-07T19:01:31.927Z,18.00
2019-06-07T19:03:04.437Z,18.00
2019-06-07T19:04:36.655Z,18.00
2019-06-07T19:06:08.953Z,17.90
2019-06-07T19:07:41.209Z,17.90
2019-06-07T19:09:13.442Z,17.80
2019-06-07T19:10:45.536Z,17.80
2019-06-07T19:12:17.681Z,17.80
2019-06-07T19:13:50.751Z,17.80
2019-06-07T19:15:23.432Z,17.80
2019-06-07T19:16:55.641Z,17.70
2019-06-07T19:18:27.810Z,17.70
2019-06-07T19:20:00.657Z,17.70
2019-06-07T19:21:33.163Z,17.70
2019-06-07T19:23:05.288Z,17.70
2019-06-07T19:24:37.454Z,17.70
2019-06-07T19:26:09.652Z,17.70
2019-06-07T19:27:41.924Z,17.70
2019-06-07T19:29:14.122Z,17.60
2019-06-07T19:30:46.222Z,17.60
2019-06-07T19:32:18.335Z,17.60
2019-06-07T19:33:51.056Z,17.50
2019-06-07T19:35:23.382Z,17.60
2019-06-07T19:36:55.716Z,17.50
2019-06-07T19:38:28.155Z,17.50
2019-06-07T19:40:00.392Z,17.50
2019-06-07T19:41:32.632Z,17.40
2019-06-07T19:43:04.708Z,17.40
2019-06-07T19:44:51.695Z,17.40
2019-06-07T19:46:11.014Z,17.30
2019-06-07T19:47:43.226Z,17.30
2019-06-07T19:49:15.535Z,17.30
2019-06-07T19:50:47.737Z,17.30
2019-06-07T19:52:19.870Z,17.20
2019-06-07T19:53:52.930Z,17.20
2019-06-07T19:55:25.312Z,17.20
2019-06-07T19:56:57.539Z,17.20
2019-06-07T19:58:29.682Z,17.20
2019-06-07T20:00:02.706Z,17.10
2019-06-07T20:01:36.133Z,17.10
2019-06-07T20:03:08.341Z,17.10
2019-06-07T20:04:46.555Z,17.00
2019-06-07T20:06:18.853Z,17.00